Decoded Metar for EIKY (KERRY in IRELAND) (IATA:KIR) | Meteo·Mobile Aviation Weather
aviador You're here:

EIKY Decoded Metar

KERRY in IRELAND
Report Time2018-08-14 10:30:00
UTC Time2018-08-14 11:02:53
Flight Rules mvfr MVFR
Wind250° at 15 kt
W.Decomp.*RWY 26: 15.0 kt HW 0.8 kt LCW
W.Rank250° ranks 3
Current wind is above 250° avg. (10.8)
Visibility9999 m
Phenomena:N/A
Clouds:Scattered 014 Hf
Broken 021 Hf
Expected CloudBase > 800 ft AGL from Temp-Dew spread
Ceiling2,100 ft
Temp16°C (ISA +1)
Dew Point14°C (88% RH)
AAT11.9°C
QNH1017 hPa
Density Alt335 ft
Elevation111 ft
Report Wrong Elevation
Raw Report
METAR EIKY 141030Z 25015KT 9999 SCT014 BKN021 16/14 Q1017=

Extra information for EIKY:More info

Metar Taf Metar & Taf Last 4 Metars F.Rules Stats Wind Profile Meteogram Temp Stats Airport Information Weather charts Add Link Nearby VenuesMetar ALERT Operation Metar Decoded Social comments